Willow Island, West Virginia
Current Conditions -  °F | °C
As of 9:35 AM on Monday 26 Jan 2015 (Local Time) from KPKB Reporting Station
Light Snow Light Snow  
Wind Chill: 22°   Ceiling: 1900
Heat Index: 28°   Visibility: 1mi
Dew Point: 25°   Wind: 6mph
Humidity: 88%   Direction: NA
Pressure: 29.74"   Gusts: NA
Location:  39.3518°N, 81.2939°W
Report Text: KPKB 261435Z VRB05KT 1SM -SN BR SCT008 OVC019 M02/M04 A2974 RMK AO2 P0001 T10221039 RVRNO
Loading
Personal Weather Stations






























Interactive Weather Map New forecast layout! Learn more

10-Day Weather Forecast

Advertisements
Track Severe Weather on mobile